Markes, Pennsylvania
Current Conditions -  °F | °C
As of 6:53 PM on Wednesday 22 Oct 2014 (Local Time) from KHGR Reporting Station
Overcast Overcast  
Wind Chill: 54°   Ceiling: 12000
Heat Index: 54°   Visibility: 10mi
Dew Point: 42°   Wind: 20mph
Humidity: 64%   Direction: 340°NNW
Pressure: 30"   Gusts: 26mph
Location:  39.8035°N, 77.9346°W
Report Text: KHGR 222253Z 34017G23KT 10SM SCT038 OVC120 12/06 A3000 RMK AO2 SLP168 T01220056
Loading
Personal Weather Stations






























Interactive Weather Map
Tropical Storm Tracking
New forecast layout! Learn more

10-Day Weather Forecast

Advertisements
Track Severe Weather on mobile